Time;durP1;ratioP1;P1;durP2;ratioP2;P2;SDS_P1;SDS_P2;PMS_P1;PMS_P2;Temp;Humidity;BMP_temperature;BMP_pressure;BME280_temperature;BME280_humidity;BME280_pressure;Samples;Min_cycle;Max_cycle;Signal;HPM_P1;HPM_P2
2022/09/16 00:01:37;;;;;;;5.43;0.65;;;;;;;;;;5322430;28;20628;-68
2022/09/16 00:04:08;;;;;;;4.20;0.60;;;;;;;;;;5324090;28;20023;-67
2022/09/16 00:06:39;;;;;;;4.25;0.70;;;;;;;;;;5323511;28;20301;-67
2022/09/16 00:09:10;;;;;;;3.65;0.80;;;;;;;;;;5323167;28;20265;-67
2022/09/16 00:11:42;;;;;;;5.97;0.90;;;;;;;;;;5323309;28;20273;-67
2022/09/16 00:14:13;;;;;;;5.63;0.65;;;;;;;;;;5323570;28;20269;-67
2022/09/16 00:16:44;;;;;;;4.38;1.00;;;;;;;;;;5322657;28;20462;-67
2022/09/16 00:19:15;;;;;;;8.90;0.60;;;;;;;;;;5323906;28;20076;-67
2022/09/16 00:21:47;;;;;;;11.27;1.55;;;;;;;;;;5323091;28;20272;-67
2022/09/16 00:24:18;;;;;;;5.38;0.60;;;;;;;;;;5322918;28;20455;-67
2022/09/16 00:26:50;;;;;;;3.22;0.60;;;;;;;;;;5323115;28;20024;-67
2022/09/16 00:29:21;;;;;;;5.90;0.50;;;;;;;;;;5323745;28;20020;-67
2022/09/16 00:31:52;;;;;;;7.07;0.80;;;;;;;;;;5322299;28;20269;-67
2022/09/16 00:34:23;;;;;;;5.30;0.90;;;;;;;;;;5323185;28;20108;-67
2022/09/16 00:36:54;;;;;;;4.60;0.60;;;;;;;;;;5322590;28;20275;-67
2022/09/16 00:39:25;;;;;;;5.10;0.73;;;;;;;;;;5322852;28;20348;-67
2022/09/16 00:41:57;;;;;;;5.43;0.77;;;;;;;;;;5323492;28;20567;-68
2022/09/16 00:44:46;;;;;;;3.20;0.60;;;;;;;;;;5321989;28;20301;-67
2022/09/16 00:47:20;;;;;;;5.88;0.90;;;;;;;;;;5323218;28;20297;-67
2022/09/16 00:49:55;;;;;;;4.07;0.70;;;;;;;;;;5322682;28;20134;-68
2022/09/16 00:52:27;;;;;;;4.50;0.70;;;;;;;;;;5322112;28;20019;-67
2022/09/16 00:55:01;;;;;;;9.90;1.27;;;;;;;;;;5323167;28;20118;-68
2022/09/16 00:57:33;;;;;;;3.78;0.73;;;;;;;;;;5322792;28;20048;-68
2022/09/16 01:00:06;;;;;;;3.47;0.60;;;;;;;;;;5322364;28;20058;-67
2022/09/16 01:02:39;;;;;;;7.35;1.20;;;;;;;;;;5326496;28;20023;-67
2022/09/16 01:05:13;;;;;;;5.40;0.73;;;;;;;;;;5326548;28;20074;-67
2022/09/16 01:07:45;;;;;;;5.95;0.80;;;;;;;;;;5326697;28;20429;-67
2022/09/16 01:10:18;;;;;;;5.70;1.25;;;;;;;;;;5327039;28;20047;-67
2022/09/16 01:13:03;;;;;;;5.65;0.80;;;;;;;;;;5325673;28;20007;-67
2022/09/16 01:15:34;;;;;;;5.47;0.70;;;;;;;;;;5326578;28;20046;-67
2022/09/16 01:18:13;;;;;;;5.88;0.80;;;;;;;;;;5327136;28;20020;-67
2022/09/16 01:20:44;;;;;;;5.43;0.80;;;;;;;;;;5325474;28;20265;-67
2022/09/16 01:23:45;;;;;;;5.97;1.17;;;;;;;;;;5326837;28;20031;-67
2022/09/16 01:26:27;;;;;;;3.70;0.60;;;;;;;;;;5270540;28;20620;-67
2022/09/16 01:29:13;;;;;;;2.50;0.60;;;;;;;;;;5326805;28;20476;-67
2022/09/16 01:31:53;;;;;;;3.65;0.80;;;;;;;;;;5326259;28;20351;-67
2022/09/16 01:34:42;;;;;;;4.55;0.77;;;;;;;;;;5325544;28;20026;-67
2022/09/16 01:37:31;;;;;;;4.18;0.90;;;;;;;;;;5326787;28;20073;-68
2022/09/16 01:40:05;;;;;;;3.55;1.15;;;;;;;;;;5326004;28;20027;-68
2022/09/16 01:42:49;;;;;;;5.90;1.17;;;;;;;;;;5326064;28;20015;-67
2022/09/16 01:45:38;;;;;;;5.68;1.05;;;;;;;;;;5326463;28;20039;-67
2022/09/16 01:48:23;;;;;;;6.97;0.70;;;;;;;;;;5325262;28;20082;-67
2022/09/16 01:51:00;;;;;;;3.92;0.65;;;;;;;;;;5325801;28;20027;-66
2022/09/16 01:53:34;;;;;;;4.90;0.98;;;;;;;;;;5325739;28;20026;-67
2022/09/16 01:56:08;;;;;;;6.25;1.10;;;;;;;;;;5325232;28;20034;-67
2022/09/16 01:58:58;;;;;;;4.63;0.88;;;;;;;;;;5325509;28;20043;-67
2022/09/16 02:01:37;;;;;;;8.88;1.33;;;;;;;;;;5324852;28;20020;-67
2022/09/16 02:04:15;;;;;;;3.45;0.75;;;;;;;;;;5326268;28;20107;-67
2022/09/16 02:06:48;;;;;;;4.68;0.80;;;;;;;;;;5325414;28;20020;-67
2022/09/16 02:09:22;;;;;;;4.45;0.70;;;;;;;;;;5325338;28;20386;-67
2022/09/16 02:11:55;;;;;;;6.68;1.27;;;;;;;;;;5324943;28;20019;-67
2022/09/16 02:14:28;;;;;;;7.07;1.27;;;;;;;;;;5324665;28;20041;-67
2022/09/16 02:17:01;;;;;;;7.60;0.70;;;;;;;;;;5324903;27;20406;-67
2022/09/16 02:19:35;;;;;;;3.53;0.90;;;;;;;;;;5325291;28;20012;-67
2022/09/16 02:22:08;;;;;;;6.63;0.70;;;;;;;;;;5325608;28;20084;-67
2022/09/16 02:24:40;;;;;;;7.20;1.33;;;;;;;;;;5324194;28;20042;-67
2022/09/16 02:27:13;;;;;;;4.25;1.30;;;;;;;;;;5325427;28;20020;-67
2022/09/16 02:29:50;;;;;;;3.42;0.70;;;;;;;;;;5324139;28;20016;-67
2022/09/16 02:32:23;;;;;;;6.95;0.73;;;;;;;;;;5325411;28;20054;-67
2022/09/16 02:34:54;;;;;;;9.93;1.05;;;;;;;;;;5325074;28;20028;-67
2022/09/16 02:37:29;;;;;;;4.50;0.70;;;;;;;;;;5323932;28;20022;-68
2022/09/16 02:40:04;;;;;;;5.78;0.90;;;;;;;;;;5325256;28;20143;-67
2022/09/16 02:42:36;;;;;;;5.38;1.00;;;;;;;;;;5324784;28;20381;-67
2022/09/16 02:45:07;;;;;;;9.23;0.60;;;;;;;;;;5324444;28;20019;-67
2022/09/16 02:47:57;;;;;;;5.38;0.70;;;;;;;;;;5324392;28;20052;-67
2022/09/16 02:50:33;;;;;;;7.68;0.90;;;;;;;;;;5323665;28;20100;-67
2022/09/16 02:53:07;;;;;;;4.30;0.60;;;;;;;;;;5325132;28;20405;-67
2022/09/16 02:55:55;;;;;;;6.55;0.75;;;;;;;;;;5324437;28;20035;-67
2022/09/16 02:58:28;;;;;;;6.65;0.60;;;;;;;;;;5323629;27;20015;-68
2022/09/16 03:00:59;;;;;;;4.38;0.70;;;;;;;;;;5324693;28;20051;-67
2022/09/16 03:03:30;;;;;;;3.85;0.80;;;;;;;;;;5324292;28;20023;-67
2022/09/16 03:06:04;;;;;;;6.97;0.60;;;;;;;;;;5324254;28;20015;-67
2022/09/16 03:08:36;;;;;;;4.47;0.98;;;;;;;;;;5324109;28;20144;-68
2022/09/16 03:11:22;;;;;;;6.65;0.82;;;;;;;;;;5324638;28;20015;-67
2022/09/16 03:14:00;;;;;;;3.47;0.60;;;;;;;;;;5323354;28;20054;-67
2022/09/16 03:17:07;;;;;;;2.65;1.08;;;;;;;;;;5324234;28;20494;-67
2022/09/16 03:19:47;;;;;;;8.48;0.65;;;;;;;;;;5257677;28;20034;-67
2022/09/16 03:22:39;;;;;;;6.32;0.90;;;;;;;;;;5317537;28;20479;-68
2022/09/16 03:25:11;;;;;;;5.22;1.20;;;;;;;;;;5323659;27;20012;-67
2022/09/16 03:27:47;;;;;;;6.35;1.00;;;;;;;;;;5323022;28;20509;-67
2022/09/16 03:30:18;;;;;;;7.25;0.90;;;;;;;;;;5324087;28;20249;-67
2022/09/16 03:32:53;;;;;;;4.88;0.60;;;;;;;;;;5322989;28;20015;-68
2022/09/16 03:35:32;;;;;;;5.60;0.88;;;;;;;;;;5323882;28;20487;-67
2022/09/16 03:38:05;;;;;;;4.72;0.60;;;;;;;;;;5324187;28;20019;-68
2022/09/16 03:40:36;;;;;;;6.15;0.52;;;;;;;;;;5322653;28;20462;-67
2022/09/16 03:43:11;;;;;;;4.25;0.60;;;;;;;;;;5324203;28;20035;-68
2022/09/16 03:45:43;;;;;;;8.02;0.60;;;;;;;;;;5323395;28;20026;-67
2022/09/16 03:48:14;;;;;;;6.57;0.60;;;;;;;;;;5323355;28;20036;-68
2022/09/16 03:50:45;;;;;;;6.57;0.90;;;;;;;;;;5323352;28;20027;-68
2022/09/16 03:53:16;;;;;;;5.90;0.57;;;;;;;;;;5324048;28;20258;-68
2022/09/16 03:55:49;;;;;;;4.90;0.60;;;;;;;;;;5322346;28;20289;-68
2022/09/16 03:58:20;;;;;;;7.95;0.80;;;;;;;;;;5323984;28;20518;-68
2022/09/16 04:00:52;;;;;;;8.35;0.60;;;;;;;;;;5322447;28;20110;-68
2022/09/16 04:03:23;;;;;;;6.60;0.63;;;;;;;;;;5323412;28;20008;-68
2022/09/16 04:05:55;;;;;;;6.07;0.60;;;;;;;;;;5323722;28;20019;-68
2022/09/16 04:08:26;;;;;;;5.47;0.57;;;;;;;;;;5322450;28;20257;-68
2022/09/16 04:10:59;;;;;;;2.85;0.45;;;;;;;;;;5324185;28;20020;-68
2022/09/16 04:13:30;;;;;;;3.05;0.85;;;;;;;;;;5323176;28;20281;-68
2022/09/16 04:16:02;;;;;;;6.18;1.00;;;;;;;;;;5322823;28;20024;-68
2022/09/16 04:18:33;;;;;;;4.05;0.63;;;;;;;;;;5322961;28;20016;-67
2022/09/16 04:21:05;;;;;;;5.13;0.77;;;;;;;;;;5323769;28;20501;-69
2022/09/16 04:23:36;;;;;;;2.90;0.73;;;;;;;;;;5322136;28;20107;-67
2022/09/16 04:26:07;;;;;;;2.90;0.40;;;;;;;;;;5323475;28;20513;-67
2022/09/16 04:28:38;;;;;;;8.57;1.13;;;;;;;;;;5323030;28;20748;-67
2022/09/16 04:31:10;;;;;;;3.70;0.50;;;;;;;;;;5322791;28;20118;-67
2022/09/16 04:33:41;;;;;;;6.80;0.90;;;;;;;;;;5322984;28;20019;-67
2022/09/16 04:36:14;;;;;;;5.25;0.75;;;;;;;;;;5324427;28;20038;-67
2022/09/16 04:38:46;;;;;;;5.28;0.70;;;;;;;;;;5327053;28;20023;-67
2022/09/16 04:41:19;;;;;;;5.30;0.63;;;;;;;;;;5327858;28;20462;-67
2022/09/16 04:43:51;;;;;;;5.78;0.80;;;;;;;;;;5326310;28;20102;-67
2022/09/16 04:46:27;;;;;;;3.25;0.55;;;;;;;;;;5327399;28;20043;-66
2022/09/16 04:48:58;;;;;;;5.03;0.40;;;;;;;;;;5327553;28;20474;-68
2022/09/16 04:51:31;;;;;;;2.30;0.38;;;;;;;;;;5326027;28;20027;-67
2022/09/16 04:54:02;;;;;;;2.53;0.30;;;;;;;;;;5327496;28;20023;-68
2022/09/16 04:56:33;;;;;;;2.67;0.40;;;;;;;;;;5326871;28;20148;-68
2022/09/16 04:59:05;;;;;;;1.83;0.30;;;;;;;;;;5326618;28;20016;-68
2022/09/16 05:01:37;;;;;;;4.10;0.52;;;;;;;;;;5326459;28;20023;-67
2022/09/16 05:04:08;;;;;;;5.18;0.60;;;;;;;;;;5326238;27;20015;-67
2022/09/16 05:06:40;;;;;;;3.13;0.50;;;;;;;;;;5326664;28;20026;-67
2022/09/16 05:09:12;;;;;;;3.55;0.30;;;;;;;;;;5327178;28;20039;-67
2022/09/16 05:11:43;;;;;;;3.70;0.50;;;;;;;;;;5325674;28;20106;-68
2022/09/16 05:14:15;;;;;;;4.28;0.38;;;;;;;;;;5326757;27;20229;-68
2022/09/16 05:16:47;;;;;;;5.55;0.30;;;;;;;;;;5326560;28;20273;-67
2022/09/16 05:19:18;;;;;;;2.83;0.30;;;;;;;;;;5326352;28;20039;-67
2022/09/16 05:21:50;;;;;;;2.45;0.30;;;;;;;;;;5326282;28;20027;-67
2022/09/16 05:24:21;;;;;;;3.10;0.35;;;;;;;;;;5326663;28;20104;-67
2022/09/16 05:26:52;;;;;;;2.20;0.30;;;;;;;;;;5325386;28;20020;-67
2022/09/16 05:29:23;;;;;;;2.33;0.40;;;;;;;;;;5326632;28;20023;-67
2022/09/16 05:31:54;;;;;;;3.92;0.40;;;;;;;;;;5326558;28;20257;-68
2022/09/16 05:34:27;;;;;;;7.57;0.43;;;;;;;;;;5325253;28;20304;-67
2022/09/16 05:36:59;;;;;;;5.40;0.32;;;;;;;;;;5326661;28;20028;-68
2022/09/16 05:39:30;;;;;;;3.45;0.38;;;;;;;;;;5325037;28;20455;-68
2022/09/16 05:42:02;;;;;;;4.40;0.30;;;;;;;;;;5326474;28;20028;-68
2022/09/16 05:44:33;;;;;;;3.63;0.73;;;;;;;;;;5325989;27;20360;-68
2022/09/16 05:47:04;;;;;;;4.13;0.30;;;;;;;;;;5324434;28;20050;-67
2022/09/16 05:49:35;;;;;;;2.15;0.50;;;;;;;;;;5325405;28;20262;-67
2022/09/16 05:52:07;;;;;;;4.22;0.30;;;;;;;;;;5326114;28;20027;-67
2022/09/16 05:54:39;;;;;;;2.22;0.30;;;;;;;;;;5324692;28;20051;-67
2022/09/16 05:57:10;;;;;;;3.20;0.30;;;;;;;;;;5326332;28;20060;-67
2022/09/16 05:59:41;;;;;;;4.32;0.30;;;;;;;;;;5325514;28;20327;-67
2022/09/16 06:02:13;;;;;;;5.43;0.40;;;;;;;;;;5325163;28;20018;-68
2022/09/16 06:04:44;;;;;;;4.00;0.30;;;;;;;;;;5325586;27;20065;-68
2022/09/16 06:07:16;;;;;;;5.88;0.68;;;;;;;;;;5326011;28;20261;-68
2022/09/16 06:09:47;;;;;;;3.35;0.28;;;;;;;;;;5324585;28;20095;-68
2022/09/16 06:12:18;;;;;;;3.88;0.30;;;;;;;;;;5325655;28;20020;-68
2022/09/16 06:14:49;;;;;;;2.38;0.40;;;;;;;;;;5324273;28;21106;-68
2022/09/16 06:17:21;;;;;;;2.38;0.20;;;;;;;;;;5325913;28;20274;-68
2022/09/16 06:19:52;;;;;;;4.72;0.30;;;;;;;;;;5325257;28;20019;-68
2022/09/16 06:22:23;;;;;;;2.30;0.20;;;;;;;;;;5324703;28;20042;-67
2022/09/16 06:24:54;;;;;;;1.85;0.38;;;;;;;;;;5325094;28;20277;-67
2022/09/16 06:27:26;;;;;;;2.00;0.20;;;;;;;;;;5324886;28;20040;-67
2022/09/16 06:29:57;;;;;;;2.30;0.43;;;;;;;;;;5324725;28;20284;-68
2022/09/16 06:32:31;;;;;;;1.27;0.20;;;;;;;;;;5324835;28;20028;-67
2022/09/16 06:35:02;;;;;;;4.50;0.30;;;;;;;;;;5325279;28;20319;-68
2022/09/16 06:37:34;;;;;;;5.25;0.30;;;;;;;;;;5324420;28;20015;-67
2022/09/16 06:40:05;;;;;;;3.20;0.30;;;;;;;;;;5325452;28;20543;-67
2022/09/16 06:42:36;;;;;;;3.00;0.47;;;;;;;;;;5323934;28;20065;-67
2022/09/16 06:45:08;;;;;;;3.40;0.40;;;;;;;;;;5325304;28;20420;-67
2022/09/16 06:47:39;;;;;;;2.13;0.20;;;;;;;;;;5324146;28;20372;-69
2022/09/16 06:50:10;;;;;;;3.40;0.20;;;;;;;;;;5324229;28;20036;-67
2022/09/16 06:52:41;;;;;;;2.50;0.28;;;;;;;;;;5324227;28;20262;-67
2022/09/16 06:55:12;;;;;;;2.70;0.22;;;;;;;;;;5324874;28;20042;-68
2022/09/16 06:57:44;;;;;;;2.15;0.20;;;;;;;;;;5323724;28;20075;-68
2022/09/16 07:00:15;;;;;;;1.10;0.25;;;;;;;;;;5324728;28;20272;-68
2022/09/16 07:02:46;;;;;;;0.88;0.20;;;;;;;;;;5323954;28;20268;-67
2022/09/16 07:05:17;;;;;;;1.42;0.30;;;;;;;;;;5323870;28;20031;-67
2022/09/16 07:07:48;;;;;;;3.05;0.30;;;;;;;;;;5324140;28;20458;-69
2022/09/16 07:10:20;;;;;;;2.63;0.30;;;;;;;;;;5324665;28;20024;-67
2022/09/16 07:12:51;;;;;;;2.13;0.20;;;;;;;;;;5323306;28;20813;-68
2022/09/16 07:15:22;;;;;;;1.58;0.20;;;;;;;;;;5324454;28;20118;-67
2022/09/16 07:17:54;;;;;;;2.17;0.20;;;;;;;;;;5323396;28;20258;-67
2022/09/16 07:20:25;;;;;;;2.25;0.28;;;;;;;;;;5324030;28;20269;-68
2022/09/16 07:22:57;;;;;;;2.88;0.20;;;;;;;;;;5324426;28;20051;-68
2022/09/16 07:25:28;;;;;;;1.67;0.30;;;;;;;;;;5322927;28;20106;-68
2022/09/16 07:27:59;;;;;;;1.73;0.17;;;;;;;;;;5324602;28;20370;-68
2022/09/16 07:30:33;;;;;;;1.90;0.30;;;;;;;;;;5324042;28;20350;-69
2022/09/16 07:33:04;;;;;;;1.70;0.20;;;;;;;;;;5323673;28;20686;-69
2022/09/16 07:35:35;;;;;;;2.08;0.30;;;;;;;;;;5323610;28;20031;-68
2022/09/16 07:38:06;;;;;;;2.47;0.30;;;;;;;;;;5324201;28;20284;-68
2022/09/16 07:40:39;;;;;;;5.88;0.20;;;;;;;;;;5322959;28;20099;-68
2022/09/16 07:43:11;;;;;;;4.53;0.60;;;;;;;;;;5324235;28;20291;-67
2022/09/16 07:45:42;;;;;;;2.63;0.30;;;;;;;;;;5323690;28;20034;-68
2022/09/16 07:48:13;;;;;;;3.63;0.22;;;;;;;;;;5323048;28;20130;-68
2022/09/16 07:50:52;;;;;;;2.17;0.20;;;;;;;;;;5323671;28;20030;-68
2022/09/16 07:53:23;;;;;;;;;;;;;;;;;;5323448;28;20311;-68
2022/09/16 07:55:55;;;;;;;2.10;0.20;;;;;;;;;;5323798;28;19916;-67
2022/09/16 07:58:26;;;;;;;1.92;0.30;;;;;;;;;;5323435;28;20016;-68
2022/09/16 08:00:58;;;;;;;1.88;0.20;;;;;;;;;;5323193;28;20023;-67
2022/09/16 08:03:29;;;;;;;2.85;0.30;;;;;;;;;;5323475;28;20295;-67
2022/09/16 08:06:02;;;;;;;2.83;0.20;;;;;;;;;;5324020;28;20051;-67
2022/09/16 08:08:33;;;;;;;3.25;0.32;;;;;;;;;;5322439;28;20022;-68
2022/09/16 08:11:05;;;;;;;3.35;0.40;;;;;;;;;;5323132;28;20023;-67
2022/09/16 08:13:36;;;;;;;7.03;0.47;;;;;;;;;;5323052;28;20491;-67
2022/09/16 08:16:10;;;;;;;3.33;0.40;;;;;;;;;;5323115;28;20092;-68
2022/09/16 08:18:41;;;;;;;2.53;0.60;;;;;;;;;;5323157;28;20423;-68
2022/09/16 08:21:14;;;;;;;5.18;0.30;;;;;;;;;;5322929;28;20106;-68
2022/09/16 08:23:45;;;;;;;3.95;0.30;;;;;;;;;;5322960;28;20020;-67
2022/09/16 08:26:17;;;;;;;2.88;0.40;;;;;;;;;;5323794;28;20481;-67
2022/09/16 08:28:48;;;;;;;2.55;0.30;;;;;;;;;;5318051;28;20008;-68
2022/09/16 08:31:19;;;;;;;4.13;0.85;;;;;;;;;;5323122;28;20079;-66
2022/09/16 08:33:51;;;;;;;2.08;0.30;;;;;;;;;;5313475;28;20139;-67
2022/09/16 08:36:23;;;;;;;5.00;0.50;;;;;;;;;;5306547;28;20066;-67
2022/09/16 08:38:55;;;;;;;1.98;0.38;;;;;;;;;;5302591;28;20032;-66
2022/09/16 08:41:38;;;;;;;3.13;0.40;;;;;;;;;;5326057;27;20434;-67
2022/09/16 08:44:13;;;;;;;3.63;0.35;;;;;;;;;;5321714;28;20024;-67
2022/09/16 08:46:49;;;;;;;4.65;0.30;;;;;;;;;;5308015;28;20560;-66
2022/09/16 08:49:41;;;;;;;2.97;0.40;;;;;;;;;;5300452;28;20028;-66
2022/09/16 08:52:32;;;;;;;1.95;0.30;;;;;;;;;;5301060;28;20353;-67
2022/09/16 08:55:04;;;;;;;3.00;0.22;;;;;;;;;;5317923;28;20065;-67
2022/09/16 08:57:39;;;;;;;2.95;0.45;;;;;;;;;;5322028;28;20523;-67
2022/09/16 09:00:15;;;;;;;1.55;0.20;;;;;;;;;;5323379;28;20027;-66
2022/09/16 09:02:54;;;;;;;5.68;0.40;;;;;;;;;;5322885;28;20380;-68
2022/09/16 09:05:35;;;;;;;2.38;0.22;;;;;;;;;;5321747;28;20026;-68
2022/09/16 09:08:12;;;;;;;2.00;0.20;;;;;;;;;;5323113;28;20030;-67
2022/09/16 09:11:10;;;;;;;5.97;0.40;;;;;;;;;;5321843;28;20085;-67
2022/09/16 09:13:54;;;;;;;2.17;0.20;;;;;;;;;;5298667;28;20035;-67
2022/09/16 09:16:54;;;;;;;4.45;0.35;;;;;;;;;;5321793;28;20028;-67
2022/09/16 09:19:37;;;;;;;1.98;0.20;;;;;;;;;;5266310;28;20047;-67
2022/09/16 09:22:44;;;;;;;2.80;0.25;;;;;;;;;;5323032;28;20029;-67
2022/09/16 09:25:27;;;;;;;4.93;0.30;;;;;;;;;;5260472;28;20068;-67
2022/09/16 09:28:22;;;;;;;5.10;0.40;;;;;;;;;;5320663;27;20120;-68
2022/09/16 09:31:07;;;;;;;11.25;1.48;;;;;;;;;;5326185;28;20454;-68
2022/09/16 09:33:43;;;;;;;11.68;1.00;;;;;;;;;;5325696;28;20125;-67
2022/09/16 09:36:35;;;;;;;3.22;0.82;;;;;;;;;;5326222;28;20031;-67
2022/09/16 09:39:18;;;;;;;3.78;0.22;;;;;;;;;;5325690;28;20513;-67
2022/09/16 09:41:56;;;;;;;2.03;0.20;;;;;;;;;;5326013;28;20026;-69
2022/09/16 09:44:40;;;;;;;2.10;0.38;;;;;;;;;;5326132;27;20095;-68
2022/09/16 09:47:18;;;;;;;1.35;0.20;;;;;;;;;;5325120;28;20040;-71
2022/09/16 09:49:53;;;;;;;2.30;0.30;;;;;;;;;;5326011;28;20419;-70
2022/09/16 09:52:27;;;;;;;2.83;0.20;;;;;;;;;;5325270;28;20023;-69
2022/09/16 09:55:01;;;;;;;1.00;0.32;;;;;;;;;;5326212;28;20038;-69
2022/09/16 09:57:36;;;;;;;3.15;0.55;;;;;;;;;;5324560;27;20382;-70
2022/09/16 10:00:15;;;;;;;1.50;0.20;;;;;;;;;;5325734;28;20020;-70
2022/09/16 10:02:46;;;;;;;;;;;;;;;;;;5326041;28;20023;-69
2022/09/16 10:05:25;;;;;;;2.70;0.17;;;;;;;;;;5326191;28;19964;-68
2022/09/16 10:08:18;;;;;;;1.90;0.20;;;;;;;;;;5325242;28;20031;-70
2022/09/16 10:10:51;;;;;;;6.03;0.20;;;;;;;;;;5324480;28;20485;-70
2022/09/16 10:13:24;;;;;;;4.95;0.35;;;;;;;;;;5326006;28;20064;-69
2022/09/16 10:16:09;;;;;;;5.75;0.57;;;;;;;;;;5323881;28;20535;-68
2022/09/16 10:18:41;;;;;;;6.15;0.20;;;;;;;;;;5324468;28;20015;-67
2022/09/16 10:21:14;;;;;;;1.52;0.10;;;;;;;;;;5324381;28;20019;-67
2022/09/16 10:23:56;;;;;;;1.38;0.15;;;;;;;;;;5324276;28;20759;-67
2022/09/16 10:26:27;;;;;;;3.53;0.20;;;;;;;;;;5324166;28;20049;-68
2022/09/16 10:28:59;;;;;;;1.35;0.15;;;;;;;;;;5324562;28;20538;-68
2022/09/16 10:31:35;;;;;;;1.52;0.10;;;;;;;;;;5325093;28;20023;-67
2022/09/16 10:34:14;;;;;;;1.50;0.17;;;;;;;;;;5324976;28;20027;-68
2022/09/16 10:36:45;;;;;;;1.77;0.20;;;;;;;;;;5323894;28;20035;-68
2022/09/16 10:39:21;;;;;;;2.45;0.10;;;;;;;;;;5325243;28;20023;-67
2022/09/16 10:41:53;;;;;;;1.02;0.10;;;;;;;;;;5324070;28;20042;-68
2022/09/16 10:44:28;;;;;;;1.65;0.20;;;;;;;;;;5324972;28;20011;-68
2022/09/16 10:47:01;;;;;;;1.92;0.10;;;;;;;;;;5324991;28;20116;-68
2022/09/16 10:49:47;;;;;;;1.00;0.10;;;;;;;;;;5323663;27;20030;-67
2022/09/16 10:52:18;;;;;;;2.47;0.10;;;;;;;;;;5325100;28;20027;-67
2022/09/16 10:54:49;;;;;;;2.40;0.20;;;;;;;;;;5324425;28;20047;-66
2022/09/16 10:57:31;;;;;;;3.97;0.20;;;;;;;;;;5323733;28;20281;-66
2022/09/16 11:00:07;;;;;;;1.38;0.20;;;;;;;;;;5324531;28;20098;-66
2022/09/16 11:03:00;;;;;;;2.92;0.30;;;;;;;;;;5324293;28;20027;-67
2022/09/16 11:05:48;;;;;;;2.63;0.20;;;;;;;;;;5324263;28;20023;-67
2022/09/16 11:08:35;;;;;;;3.20;0.20;;;;;;;;;;5324543;28;20068;-66
2022/09/16 11:11:12;;;;;;;2.15;0.20;;;;;;;;;;5323952;28;20073;-67
2022/09/16 11:13:46;;;;;;;2.47;0.20;;;;;;;;;;5324100;28;20039;-67
2022/09/16 11:16:35;;;;;;;4.72;0.30;;;;;;;;;;5324435;27;20031;-67
2022/09/16 11:19:19;;;;;;;1.95;0.20;;;;;;;;;;5323752;28;20051;-67
2022/09/16 11:21:54;;;;;;;4.85;0.30;;;;;;;;;;5324097;28;20355;-67
2022/09/16 11:24:34;;;;;;;3.72;0.30;;;;;;;;;;5323088;28;20020;-67
2022/09/16 11:27:24;;;;;;;3.60;0.50;;;;;;;;;;5324463;28;20105;-66
2022/09/16 11:30:16;;;;;;;1.27;0.25;;;;;;;;;;5324321;28;20016;-66
2022/09/16 11:32:50;;;;;;;7.30;0.77;;;;;;;;;;5322863;28;20016;-66
2022/09/16 11:35:36;;;;;;;2.05;0.30;;;;;;;;;;5324138;28;20060;-66
2022/09/16 11:38:13;;;;;;;2.15;0.45;;;;;;;;;;5323499;28;20035;-66
2022/09/16 11:40:52;;;;;;;2.83;0.30;;;;;;;;;;5323668;28;20326;-66
2022/09/16 11:43:23;;;;;;;;;;;;;;;;;;5324139;28;20023;-67
2022/09/16 11:46:08;;;;;;;3.63;0.30;;;;;;;;;;5322101;28;19910;-66
2022/09/16 11:48:57;;;;;;;3.08;0.55;;;;;;;;;;5323174;28;20044;-65
2022/09/16 11:51:31;;;;;;;1.45;0.20;;;;;;;;;;5323279;28;20027;-66
2022/09/16 11:54:11;;;;;;;4.43;0.50;;;;;;;;;;5322957;28;20150;-66
2022/09/16 11:56:45;;;;;;;2.85;0.20;;;;;;;;;;5323185;28;20094;-66
2022/09/16 11:59:23;;;;;;;2.70;0.22;;;;;;;;;;5322899;27;20098;-66
2022/09/16 12:02:26;;;;;;;4.77;0.70;;;;;;;;;;5323500;28;20119;-68
2022/09/16 12:05:05;;;;;;;1.90;0.20;;;;;;;;;;5289335;28;20661;-67
2022/09/16 12:07:38;;;;;;;7.45;0.75;;;;;;;;;;5322465;28;20068;-68
2022/09/16 12:10:21;;;;;;;3.13;0.20;;;;;;;;;;5323847;28;20023;-66
2022/09/16 12:12:59;;;;;;;1.98;0.32;;;;;;;;;;5323099;28;20077;-67
2022/09/16 12:15:34;;;;;;;5.90;0.20;;;;;;;;;;5322038;28;20036;-66
2022/09/16 12:18:13;;;;;;;0.73;0.10;;;;;;;;;;5323681;28;20012;-66
2022/09/16 12:20:46;;;;;;;1.75;0.03;;;;;;;;;;5322207;28;20027;-67
2022/09/16 12:23:21;;;;;;;1.10;0.10;;;;;;;;;;5323492;28;20366;-67
2022/09/16 12:26:10;;;;;;;0.68;0.10;;;;;;;;;;5323111;28;20027;-67
2022/09/16 12:28:49;;;;;;;2.70;0.10;;;;;;;;;;5322239;28;20019;-67
2022/09/16 12:31:33;;;;;;;0.65;0.00;;;;;;;;;;5323570;28;20474;-67
2022/09/16 12:34:17;;;;;;;0.65;0.10;;;;;;;;;;5323372;28;20588;-66
2022/09/16 12:36:54;;;;;;;1.17;0.10;;;;;;;;;;5322933;28;20024;-65
2022/09/16 12:39:25;;;;;;;1.27;0.10;;;;;;;;;;5322807;28;20012;-68
2022/09/16 12:42:10;;;;;;;1.40;0.03;;;;;;;;;;5322520;28;20022;-66
2022/09/16 12:44:41;;;;;;;1.02;0.10;;;;;;;;;;5322604;28;20287;-66
2022/09/16 12:47:12;;;;;;;2.00;0.20;;;;;;;;;;5323339;28;20502;-66
2022/09/16 12:50:02;;;;;;;4.37;0.17;;;;;;;;;;5322102;28;20051;-66
2022/09/16 12:52:53;;;;;;;3.85;0.20;;;;;;;;;;5322635;28;20624;-66
2022/09/16 12:55:24;;;;;;;2.40;0.13;;;;;;;;;;5322474;28;20535;-66
2022/09/16 12:57:58;;;;;;;4.50;0.20;;;;;;;;;;5326196;28;20016;-65
2022/09/16 13:00:29;;;;;;;3.03;0.20;;;;;;;;;;5326872;28;20045;-66
2022/09/16 13:03:21;;;;;;;2.13;0.20;;;;;;;;;;5326309;28;20051;-66
2022/09/16 13:05:53;;;;;;;3.58;0.22;;;;;;;;;;5326581;28;20288;-66
2022/09/16 13:08:29;;;;;;;3.00;0.20;;;;;;;;;;5326856;28;20028;-66
2022/09/16 13:11:03;;;;;;;2.63;0.20;;;;;;;;;;5326326;28;20012;-65
2022/09/16 13:13:36;;;;;;;3.13;0.20;;;;;;;;;;5326206;28;20019;-66
2022/09/16 13:16:07;;;;;;;2.38;0.38;;;;;;;;;;5326752;28;20024;-68
2022/09/16 13:18:42;;;;;;;1.73;0.20;;;;;;;;;;5325471;28;20488;-67
2022/09/16 13:21:21;;;;;;;1.58;0.20;;;;;;;;;;5326866;28;20042;-67
2022/09/16 13:23:59;;;;;;;1.13;0.13;;;;;;;;;;5325347;28;20068;-66
2022/09/16 13:26:38;;;;;;;3.70;0.20;;;;;;;;;;5326339;28;20355;-66
2022/09/16 13:29:27;;;;;;;3.37;0.20;;;;;;;;;;5326792;27;20016;-66
2022/09/16 13:31:59;;;;;;;1.90;0.10;;;;;;;;;;5325761;28;20027;-66
2022/09/16 13:34:30;;;;;;;3.35;0.20;;;;;;;;;;5325672;28;20378;-66
2022/09/16 13:37:01;;;;;;;2.30;0.13;;;;;;;;;;5326552;28;20036;-66
2022/09/16 13:39:33;;;;;;;2.28;0.20;;;;;;;;;;5325153;28;20374;-67
2022/09/16 13:42:17;;;;;;;2.05;0.15;;;;;;;;;;5326806;28;20019;-67
2022/09/16 13:44:48;;;;;;;2.15;0.40;;;;;;;;;;5325052;27;20032;-67
2022/09/16 13:47:32;;;;;;;3.47;0.28;;;;;;;;;;5325902;28;20113;-67
2022/09/16 13:50:14;;;;;;;1.95;0.20;;;;;;;;;;5326363;28;20023;-68
2022/09/16 13:52:46;;;;;;;3.33;0.20;;;;;;;;;;5323523;28;20031;-68
2022/09/16 13:55:25;;;;;;;4.45;0.30;;;;;;;;;;5326188;27;20028;-68
2022/09/16 13:57:57;;;;;;;;;;;;;;;;;;5326687;28;20356;-68
2022/09/16 14:00:28;;;;;;;4.38;0.50;;;;;;;;;;5324522;28;19908;-68
2022/09/16 14:03:25;;;;;;;3.03;0.40;;;;;;;;;;5326211;28;20094;-68
2022/09/16 14:06:12;;;;;;;3.50;0.30;;;;;;;;;;5325011;28;20051;-68
2022/09/16 14:08:56;;;;;;;2.03;0.40;;;;;;;;;;5324400;28;20055;-68
2022/09/16 14:11:57;;;;;;;2.63;0.20;;;;;;;;;;5325350;28;20023;-68
2022/09/16 14:14:30;;;;;;;1.25;0.30;;;;;;;;;;5310689;28;20078;-67
2022/09/16 14:17:02;;;;;;;2.78;0.52;;;;;;;;;;5325863;28;20478;-67
2022/09/16 14:19:36;;;;;;;3.53;0.40;;;;;;;;;;5325145;28;20016;-67
2022/09/16 14:22:15;;;;;;;2.95;0.25;;;;;;;;;;5324662;28;20023;-67
2022/09/16 14:24:47;;;;;;;1.48;0.30;;;;;;;;;;5324465;28;20028;-67
2022/09/16 14:27:27;;;;;;;4.95;0.40;;;;;;;;;;5324941;28;20100;-67
2022/09/16 14:30:19;;;;;;;2.92;0.20;;;;;;;;;;5319741;28;20020;-67
2022/09/16 14:32:50;;;;;;;2.35;0.20;;;;;;;;;;5305864;28;20032;-67
2022/09/16 14:35:22;;;;;;;3.10;0.93;;;;;;;;;;5322413;28;20027;-66
2022/09/16 14:37:56;;;;;;;3.92;0.45;;;;;;;;;;5323826;28;20542;-67
2022/09/16 14:40:27;;;;;;;4.65;0.43;;;;;;;;;;5323923;28;20445;-66
2022/09/16 14:43:04;;;;;;;4.13;0.45;;;;;;;;;;5322863;28;20069;-66
2022/09/16 14:45:36;;;;;;;3.85;0.77;;;;;;;;;;5312482;27;20036;-67
2022/09/16 14:48:08;;;;;;;3.20;0.30;;;;;;;;;;5314280;27;20047;-67
2022/09/16 14:50:44;;;;;;;1.80;0.30;;;;;;;;;;5312099;27;20266;-67
2022/09/16 14:53:23;;;;;;;2.20;0.20;;;;;;;;;;5302943;27;20043;-67
2022/09/16 14:55:54;;;;;;;;;;;;;;;;;;5307591;28;20433;-67
2022/09/16 14:58:27;;;;;;;2.22;0.40;;;;;;;;;;5323378;28;19911;-68
2022/09/16 15:01:03;;;;;;;3.13;0.30;;;;;;;;;;5316341;28;20051;-67
2022/09/16 15:03:53;;;;;;;2.78;0.22;;;;;;;;;;5321140;28;20028;-68
2022/09/16 15:06:27;;;;;;;4.72;0.40;;;;;;;;;;5323301;28;20055;-68
2022/09/16 15:09:01;;;;;;;3.13;0.20;;;;;;;;;;5323164;28;20464;-67
2022/09/16 15:11:34;;;;;;;2.28;0.30;;;;;;;;;;5322947;28;20027;-67
2022/09/16 15:14:06;;;;;;;1.95;0.30;;;;;;;;;;5322331;27;20023;-66
2022/09/16 15:16:42;;;;;;;3.83;0.30;;;;;;;;;;5311927;28;20580;-67
2022/09/16 15:19:18;;;;;;;4.05;0.22;;;;;;;;;;5310350;28;20506;-67
2022/09/16 15:21:49;;;;;;;5.25;0.30;;;;;;;;;;5322902;28;20471;-67
2022/09/16 15:24:30;;;;;;;2.83;0.30;;;;;;;;;;5322311;28;20454;-67
2022/09/16 15:27:01;;;;;;;1.33;0.20;;;;;;;;;;5323479;28;20012;-67
2022/09/16 15:29:34;;;;;;;4.57;0.30;;;;;;;;;;5322631;28;20045;-67
2022/09/16 15:32:16;;;;;;;3.90;0.40;;;;;;;;;;5322502;28;20367;-67
2022/09/16 15:35:01;;;;;;;4.00;0.30;;;;;;;;;;5322705;28;20106;-67
2022/09/16 15:37:33;;;;;;;3.92;0.30;;;;;;;;;;5322092;28;20027;-67